Time;durP1;ratioP1;P1;durP2;ratioP2;P2;SDS_P1;SDS_P2;PMS_P1;PMS_P2;Temp;Humidity;BMP_temperature;BMP_pressure;BME280_temperature;BME280_humidity;BME280_pressure;Samples;Min_cycle;Max_cycle;Signal;HPM_P1;HPM_P2
2020/12/14 00:00:12;;;;;;;10.43;5.00;;;26.30;82.30;;;;;;4980836;28;20105;-87
2020/12/14 00:02:42;;;;;;;15.70;4.53;;;26.30;83.50;;;;;;5011509;28;20065;-88
2020/12/14 00:05:16;;;;;;;11.20;4.18;;;26.30;82.60;;;;;;5010242;28;20036;-91
2020/12/14 00:07:50;;;;;;;9.57;3.78;;;26.20;82.00;;;;;;4999999;28;20094;-90
2020/12/14 00:10:17;;;;;;;17.00;3.83;;;26.20;81.90;;;;;;4980881;28;20061;-91
2020/12/14 00:12:58;;;;;;;11.82;3.97;;;26.30;81.40;;;;;;5003589;28;20033;-91
2020/12/14 00:15:24;;;;;;;11.65;5.03;;;26.20;80.80;;;;;;4982062;28;20445;-92
2020/12/14 00:17:53;;;;;;;38.13;19.35;;;26.20;82.00;;;;;;5032493;28;20034;-90
2020/12/14 00:20:37;;;;;;;12.02;8.02;;;26.10;81.50;;;;;;4994948;28;20050;-91
2020/12/14 00:23:05;;;;;;;12.10;5.30;;;26.00;82.20;;;;;;4987484;28;20096;-92
2020/12/14 00:25:48;;;;;;;4.38;3.10;;;26.00;82.50;;;;;;5018522;28;20022;-96
2020/12/14 00:28:27;;;;;;;9.98;4.07;;;25.90;82.10;;;;;;4996136;28;20055;-96
2020/12/14 00:31:02;;;;;;;5.85;4.07;;;25.90;82.20;;;;;;4975220;28;20031;-92
2020/12/14 00:33:46;;;;;;;12.85;6.45;;;25.90;82.20;;;;;;4996411;28;20023;-89
2020/12/14 00:36:33;;;;;;;11.43;6.35;;;25.80;81.90;;;;;;4981833;28;20019;-90
2020/12/14 00:39:04;;;;;;;13.35;6.90;;;25.80;82.60;;;;;;5019542;28;20053;-90
2020/12/14 00:41:31;;;;;;;9.15;5.82;;;25.70;82.40;;;;;;5034543;28;20029;-93
2020/12/14 00:43:57;;;;;;;11.27;5.43;;;25.60;82.40;;;;;;5032628;28;20020;-91
2020/12/14 00:46:27;;;;;;;6.55;4.55;;;25.60;82.50;;;;;;5163962;23;20057;-95
2020/12/14 00:49:21;;;;;;;10.63;4.43;;;25.60;82.40;;;;;;4993338;28;20054;-94
2020/12/14 00:54:55;;;;;;;6.43;4.32;;;25.50;82.10;;;;;;4912580;28;20276;-94
2020/12/14 00:57:22;;;;;;;13.75;5.28;;;25.50;81.50;;;;;;4921270;29;20055;-94
2020/12/14 00:59:59;;;;;;;12.85;6.57;;;25.60;81.50;;;;;;4919034;29;20035;-94
2020/12/14 01:02:26;;;;;;;9.98;6.07;;;25.60;81.90;;;;;;4921489;29;20129;-93
2020/12/14 01:04:53;;;;;;;12.85;5.80;;;25.60;82.20;;;;;;4918062;29;20020;-93
2020/12/14 01:07:29;;;;;;;20.92;9.77;;;25.60;81.40;;;;;;4917853;29;20036;-94
2020/12/14 01:12:44;;;;;;;21.83;10.43;;;25.40;81.40;;;;;;5151040;23;20055;-94
2020/12/14 01:15:13;;;;;;;27.17;9.90;;;25.40;81.30;;;;;;5064929;23;20053;-91
2020/12/14 01:17:46;;;;;;;17.65;7.60;;;25.40;82.00;;;;;;5031362;28;20030;-92
2020/12/14 01:20:14;;;;;;;13.02;6.28;;;25.40;82.80;;;;;;5035146;28;20030;-91
2020/12/14 01:22:50;;;;;;;8.38;4.70;;;25.40;82.80;;;;;;5033301;28;20044;-91
2020/12/14 01:25:44;;;;;;;7.00;3.80;;;25.30;82.30;;;;;;5036986;28;20045;-93
2020/12/14 01:28:14;;;;;;;8.57;2.67;;;25.10;82.90;;;;;;4977182;28;20205;-91
2020/12/14 01:30:42;;;;;;;4.68;2.85;;;25.00;83.20;;;;;;4990938;28;20103;-91
2020/12/14 01:33:12;;;;;;;8.60;2.67;;;25.00;83.70;;;;;;4975871;28;20031;-90
2020/12/14 01:35:38;;;;;;;11.20;3.00;;;24.90;83.60;;;;;;4959942;28;20023;-90
2020/12/14 01:38:05;;;;;;;4.95;2.95;;;24.90;84.60;;;;;;4959670;28;20081;-92
2020/12/14 01:40:35;;;;;;;3.88;2.47;;;24.90;83.20;;;;;;4960230;28;20320;-93
2020/12/14 01:43:02;;;;;;;6.25;2.50;;;24.90;83.80;;;;;;4971091;29;20031;-92
2020/12/14 01:45:28;;;;;;;4.85;2.50;;;24.90;83.70;;;;;;4956258;29;20020;-93
2020/12/14 01:48:08;;;;;;;7.35;3.15;;;25.00;83.90;;;;;;4974635;29;20038;-92
2020/12/14 01:50:46;;;;;;;3.30;2.45;;;24.90;83.60;;;;;;4971927;29;20087;-94
2020/12/14 01:53:24;;;;;;;3.58;2.42;;;24.90;84.20;;;;;;4954943;29;20050;-93
2020/12/14 01:55:55;;;;;;;4.35;2.65;;;24.90;84.40;;;;;;4958005;28;20035;-89
2020/12/14 01:58:25;;;;;;;5.97;2.70;;;24.90;84.10;;;;;;4967615;28;20286;-92
2020/12/14 02:00:58;;;;;;;6.28;2.67;;;24.90;84.70;;;;;;5015480;28;20045;-93
2020/12/14 02:03:28;;;;;;;3.92;2.78;;;24.90;84.50;;;;;;5002647;28;20014;-90
2020/12/14 02:06:50;;;;;;;3.65;2.80;;;24.90;84.80;;;;;;4986480;28;20278;-93
2020/12/14 02:09:36;;;;;;;4.75;3.28;;;24.80;84.50;;;;;;4951717;29;20024;-92
2020/12/14 02:12:07;;;;;;;3.67;2.85;;;24.90;84.10;;;;;;5001862;28;20029;-93
2020/12/14 02:14:36;;;;;;;4.30;2.38;;;24.80;83.70;;;;;;5007483;28;20052;-93
2020/12/14 02:17:09;;;;;;;5.97;2.78;;;24.80;84.00;;;;;;5012878;28;20042;-92
2020/12/14 02:19:41;;;;;;;5.82;2.78;;;24.80;83.90;;;;;;5013721;28;20042;-92
2020/12/14 02:22:08;;;;;;;8.45;3.63;;;24.80;83.20;;;;;;5009382;28;20022;-92
2020/12/14 02:24:34;;;;;;;9.30;4.57;;;24.90;83.40;;;;;;5009593;28;20022;-90
2020/12/14 02:27:01;;;;;;;19.20;6.28;;;24.90;84.60;;;;;;5008484;28;20089;-92
2020/12/14 02:29:31;;;;;;;17.20;5.32;;;24.90;83.80;;;;;;5007969;28;20339;-91
2020/12/14 02:31:59;;;;;;;11.30;6.60;;;24.90;82.60;;;;;;5009116;28;20030;-92
2020/12/14 02:34:25;;;;;;;9.32;5.25;;;24.90;84.30;;;;;;5009687;28;20030;-91
2020/12/14 02:36:53;;;;;;;11.73;4.88;;;24.90;83.30;;;;;;5007172;28;20019;-91
2020/12/14 02:39:20;;;;;;;7.35;4.60;;;24.80;84.00;;;;;;5008973;28;20018;-91
2020/12/14 02:41:48;;;;;;;7.13;3.53;;;24.80;83.30;;;;;;5013669;28;20014;-91
2020/12/14 02:44:17;;;;;;;6.07;3.60;;;24.80;83.70;;;;;;5012740;28;20029;-93
2020/12/14 02:46:44;;;;;;;9.70;3.38;;;24.80;83.60;;;;;;5014711;28;20026;-91
2020/12/14 02:49:12;;;;;;;4.70;3.05;;;24.80;83.60;;;;;;5012512;28;20052;-94
2020/12/14 02:51:41;;;;;;;8.52;3.63;;;24.70;84.70;;;;;;5012383;28;20041;-91
2020/12/14 02:54:07;;;;;;;4.32;3.08;;;24.60;84.50;;;;;;5010378;28;20029;-92
2020/12/14 02:56:34;;;;;;;7.03;3.10;;;24.60;84.20;;;;;;5011250;28;20097;-93
2020/12/14 02:59:01;;;;;;;6.38;3.25;;;24.60;84.70;;;;;;5014863;28;20032;-92
2020/12/14 03:01:30;;;;;;;5.22;2.72;;;24.60;83.90;;;;;;5013958;28;20018;-93
2020/12/14 03:03:58;;;;;;;6.18;2.72;;;24.60;83.60;;;;;;5028604;28;20026;-93
2020/12/14 03:06:25;;;;;;;6.85;3.13;;;24.60;83.40;;;;;;5014405;28;20014;-93
2020/12/14 03:08:52;;;;;;;9.15;3.65;;;24.60;83.00;;;;;;5018500;28;20024;-93
2020/12/14 03:11:18;;;;;;;10.57;6.10;;;24.70;83.40;;;;;;5018881;28;20049;-95
2020/12/14 03:13:59;;;;;;;14.95;5.97;;;24.70;82.80;;;;;;5017012;28;20030;-93
2020/12/14 03:16:26;;;;;;;19.45;6.50;;;24.60;82.70;;;;;;4999120;28;20034;-93
2020/12/14 03:21:24;;;;;;;14.57;8.38;;;24.60;82.30;;;;;;5052078;28;20056;-93
2020/12/14 03:24:03;;;;;;;11.23;7.40;;;24.50;82.80;;;;;;5037671;28;20045;-93
2020/12/14 03:26:29;;;;;;;16.58;7.90;;;24.50;82.30;;;;;;5080807;23;20117;-94
2020/12/14 03:28:56;;;;;;;9.00;4.70;;;24.50;82.60;;;;;;5036391;28;20092;-93
2020/12/14 03:31:25;;;;;;;5.32;3.63;;;24.50;82.30;;;;;;5108578;22;20045;-89
2020/12/14 03:34:17;;;;;;;7.35;2.55;;;24.40;82.70;;;;;;5116239;23;20065;-93
2020/12/14 03:36:45;;;;;;;4.65;2.70;;;24.40;82.80;;;;;;5058956;28;20069;-94
2020/12/14 03:39:12;;;;;;;5.63;2.67;;;24.40;82.40;;;;;;5060764;28;20031;-93
2020/12/14 03:41:38;;;;;;;5.47;2.35;;;24.30;82.60;;;;;;5059751;28;20017;-92
2020/12/14 03:44:07;;;;;;;9.75;2.25;;;24.30;82.30;;;;;;5060855;28;20057;-92
2020/12/14 03:46:35;;;;;;;2.67;2.08;;;24.30;82.00;;;;;;5075042;28;20024;-93
2020/12/14 03:49:02;;;;;;;3.53;2.60;;;24.30;82.30;;;;;;5076097;28;20104;-92
2020/12/14 03:51:31;;;;;;;4.78;2.42;;;24.30;82.80;;;;;;5074565;28;20256;-92
2020/12/14 03:53:58;;;;;;;4.45;2.50;;;24.30;83.00;;;;;;5073570;28;20045;-93
2020/12/14 03:56:26;;;;;;;3.47;2.25;;;24.30;82.90;;;;;;5074220;28;20024;-94
2020/12/14 03:58:56;;;;;;;2.88;2.00;;;24.30;82.90;;;;;;5076215;28;20053;-95
2020/12/14 04:01:29;;;;;;;4.25;2.47;;;24.20;83.10;;;;;;5075044;28;20017;-92
2020/12/14 04:04:01;;;;;;;11.40;2.92;;;24.20;83.40;;;;;;5074441;28;20092;-92
2020/12/14 04:06:45;;;;;;;3.10;2.28;;;24.20;83.40;;;;;;5073160;28;20016;-92
2020/12/14 04:09:11;;;;;;;3.90;2.00;;;24.20;83.50;;;;;;5073512;28;20025;-94
2020/12/14 04:11:38;;;;;;;2.38;1.80;;;24.20;83.90;;;;;;5074861;28;20060;-92
2020/12/14 04:14:07;;;;;;;5.30;1.98;;;24.10;83.60;;;;;;5056239;28;20101;-93
2020/12/14 04:16:35;;;;;;;3.38;2.00;;;24.10;83.70;;;;;;5072252;28;20029;-93
2020/12/14 04:19:02;;;;;;;4.75;2.00;;;24.10;83.80;;;;;;5072336;28;20029;-92
2020/12/14 04:21:29;;;;;;;4.35;2.20;;;24.10;83.70;;;;;;5073658;28;20021;-90
2020/12/14 04:23:55;;;;;;;3.45;1.95;;;24.00;83.80;;;;;;5056486;28;20048;-93
2020/12/14 04:26:22;;;;;;;3.80;2.33;;;24.10;83.60;;;;;;5072091;28;20024;-93
2020/12/14 04:28:55;;;;;;;4.43;2.28;;;24.10;83.60;;;;;;5071412;28;20021;-94
2020/12/14 04:31:21;;;;;;;3.60;2.17;;;24.10;83.50;;;;;;5054873;28;20029;-92
2020/12/14 04:34:13;;;;;;;5.05;2.22;;;24.10;83.40;;;;;;5186558;23;20053;-93
2020/12/14 04:36:44;;;;;;;3.08;2.15;;;24.00;83.50;;;;;;5037309;28;20056;-93
2020/12/14 04:39:12;;;;;;;4.43;2.30;;;24.00;83.50;;;;;;5036652;28;20029;-92
2020/12/14 04:41:39;;;;;;;4.43;2.50;;;24.00;83.20;;;;;;5036723;28;20057;-93
2020/12/14 04:44:09;;;;;;;4.35;2.45;;;24.00;84.20;;;;;;5036228;28;20021;-94
2020/12/14 04:46:37;;;;;;;3.42;2.33;;;24.00;83.30;;;;;;5036312;28;20079;-92
2020/12/14 04:49:05;;;;;;;3.20;2.20;;;24.00;83.70;;;;;;5036646;28;20021;-93
2020/12/14 04:51:38;;;;;;;2.67;2.05;;;24.00;83.30;;;;;;5053903;28;20044;-93
2020/12/14 04:54:11;;;;;;;5.60;2.35;;;24.00;83.40;;;;;;5038794;28;20045;-92
2020/12/14 04:59:36;;;;;;;8.25;3.03;;;23.90;83.70;;;;;;5049921;28;20117;-91
2020/12/14 05:02:08;;;;;;;4.38;2.22;;;23.80;83.60;;;;;;5034601;28;20038;-91
2020/12/14 05:04:39;;;;;;;2.10;1.90;;;23.90;82.70;;;;;;5034711;28;20028;-91
2020/12/14 05:07:06;;;;;;;2.80;2.50;;;23.90;82.70;;;;;;5035105;28;20213;-91
2020/12/14 05:09:33;;;;;;;4.47;2.08;;;23.80;82.40;;;;;;5033933;28;20309;-91
2020/12/14 05:12:01;;;;;;;3.97;2.05;;;23.70;82.40;;;;;;5034276;28;20049;-92
2020/12/14 05:14:35;;;;;;;3.58;2.00;;;23.70;82.40;;;;;;5033416;28;20210;-93
2020/12/14 05:17:06;;;;;;;3.78;2.00;;;23.80;82.10;;;;;;5032278;28;20025;-91
2020/12/14 05:19:33;;;;;;;5.05;2.08;;;23.70;82.50;;;;;;5032790;28;20026;-92
2020/12/14 05:22:01;;;;;;;3.42;2.20;;;23.70;82.10;;;;;;4992252;28;20034;-92
2020/12/14 05:24:30;;;;;;;3.22;2.42;;;23.70;82.20;;;;;;4992873;28;20030;-92
2020/12/14 05:27:02;;;;;;;3.72;2.15;;;23.70;82.20;;;;;;4992783;28;20385;-92
2020/12/14 05:29:31;;;;;;;5.22;2.40;;;23.70;82.00;;;;;;4991189;28;20045;-92
2020/12/14 05:32:09;;;;;;;2.83;2.22;;;23.60;82.10;;;;;;4991076;28;20033;-91
2020/12/14 05:34:39;;;;;;;3.55;2.35;;;23.60;82.60;;;;;;5007601;28;20030;-92
2020/12/14 05:37:16;;;;;;;2.38;2.10;;;23.60;82.40;;;;;;5006997;28;20049;-92
2020/12/14 05:39:44;;;;;;;7.15;2.60;;;23.60;82.60;;;;;;4987799;28;20034;-89
2020/12/14 05:42:16;;;;;;;3.22;2.70;;;23.60;82.40;;;;;;4991602;28;20270;-91
2020/12/14 05:44:46;;;;;;;4.53;2.53;;;23.60;82.30;;;;;;4992714;28;20058;-91
2020/12/14 05:47:31;;;;;;;5.57;2.15;;;23.60;82.50;;;;;;5009040;28;20038;-90
2020/12/14 05:50:00;;;;;;;3.78;2.40;;;23.60;82.50;;;;;;4974620;28;20323;-91
2020/12/14 05:52:32;;;;;;;3.15;2.15;;;23.60;81.90;;;;;;4993693;28;20097;-92
2020/12/14 05:55:03;;;;;;;2.88;2.47;;;23.60;82.20;;;;;;4992418;28;20018;-92
2020/12/14 05:57:42;;;;;;;2.25;2.00;;;23.60;81.40;;;;;;4991075;28;20057;-94
2020/12/14 06:00:12;;;;;;;2.90;2.33;;;23.60;81.30;;;;;;5005057;28;20049;-91
2020/12/14 06:02:44;;;;;;;3.63;2.00;;;23.50;81.30;;;;;;5026290;28;20027;-93
2020/12/14 06:05:15;;;;;;;4.13;2.20;;;23.50;81.70;;;;;;4993464;28;20030;-92
2020/12/14 06:07:52;;;;;;;3.72;1.98;;;23.50;81.40;;;;;;4994465;28;20035;-92
2020/12/14 06:10:22;;;;;;;2.85;1.98;;;23.60;81.30;;;;;;4992004;28;20026;-91
2020/12/14 06:12:52;;;;;;;3.63;2.10;;;23.50;81.30;;;;;;4993150;28;20033;-91
2020/12/14 06:15:19;;;;;;;2.05;1.90;;;23.50;81.20;;;;;;4992186;28;20061;-93
2020/12/14 06:17:46;;;;;;;6.32;2.30;;;23.60;81.40;;;;;;4993838;28;20049;-92
2020/12/14 06:20:24;;;;;;;2.08;1.80;;;23.50;81.20;;;;;;4992917;28;20054;-92
2020/12/14 06:23:11;;;;;;;3.05;2.00;;;23.50;81.50;;;;;;4991752;28;20022;-91
2020/12/14 06:25:40;;;;;;;2.97;2.03;;;23.60;81.50;;;;;;4996942;28;20053;-93
2020/12/14 06:28:37;;;;;;;5.15;1.98;;;23.50;81.80;;;;;;4995020;28;20026;-93
2020/12/14 06:31:06;;;;;;;3.15;2.17;;;23.50;81.80;;;;;;4993991;28;20104;-92
2020/12/14 06:33:37;;;;;;;4.10;2.25;;;23.50;82.00;;;;;;5014758;28;20022;-93
2020/12/14 06:36:22;;;;;;;3.15;1.70;;;23.50;81.70;;;;;;4994097;28;20093;-92
2020/12/14 06:38:51;;;;;;;2.47;2.08;;;23.50;82.40;;;;;;4994871;28;20026;-92
2020/12/14 06:41:22;;;;;;;3.80;2.20;;;23.50;82.30;;;;;;4993930;28;20234;-93
2020/12/14 06:44:15;;;;;;;5.18;2.10;;;23.50;83.00;;;;;;5015973;28;20030;-92
2020/12/14 06:46:41;;;;;;;3.63;2.00;;;23.50;82.70;;;;;;4996703;28;20019;-90
2020/12/14 06:49:09;;;;;;;4.15;2.00;;;23.50;82.70;;;;;;4998276;28;20026;-93
2020/12/14 06:51:55;;;;;;;2.90;2.20;;;23.50;82.30;;;;;;4996324;28;20022;-93
2020/12/14 06:54:40;;;;;;;3.85;2.28;;;23.50;82.60;;;;;;4997394;28;20022;-92
2020/12/14 06:57:21;;;;;;;8.27;2.28;;;23.50;82.80;;;;;;5014867;28;20026;-90
2020/12/14 07:00:08;;;;;;;4.47;2.42;;;23.50;82.60;;;;;;4996624;28;20121;-92
2020/12/14 07:02:37;;;;;;;2.13;1.88;;;23.50;82.10;;;;;;5032096;28;20040;-90
2020/12/14 07:05:04;;;;;;;2.47;2.00;;;23.60;82.00;;;;;;5016175;28;20294;-94
2020/12/14 07:07:35;;;;;;;2.60;2.25;;;23.60;82.10;;;;;;5018051;28;20064;-93
2020/12/14 07:10:14;;;;;;;6.20;2.10;;;23.60;81.60;;;;;;5017899;28;20026;-92
2020/12/14 07:12:46;;;;;;;5.75;2.60;;;23.60;81.10;;;;;;5017174;28;20030;-92
2020/12/14 07:15:31;;;;;;;3.27;2.03;;;23.60;81.40;;;;;;5001233;28;20028;-90
2020/12/14 07:18:04;;;;;;;2.97;2.35;;;23.60;80.80;;;;;;5018932;28;20093;-90
2020/12/14 07:20:34;;;;;;;3.10;1.95;;;23.60;80.70;;;;;;5035827;28;20073;-92
2020/12/14 07:23:10;;;;;;;3.38;2.25;;;23.70;80.50;;;;;;5020749;28;20018;-90
2020/12/14 07:25:37;;;;;;;1.83;1.70;;;23.70;79.90;;;;;;5005509;28;20029;-90
2020/12/14 07:28:05;;;;;;;4.25;2.17;;;23.70;79.90;;;;;;5020607;28;20022;-93
2020/12/14 07:30:33;;;;;;;2.95;2.00;;;23.70;79.60;;;;;;5019816;28;20050;-89
2020/12/14 07:33:04;;;;;;;3.72;1.88;;;23.80;79.20;;;;;;5020618;28;20049;-90
2020/12/14 07:35:34;;;;;;;2.65;1.75;;;23.80;78.80;;;;;;5005757;28;20075;-92
2020/12/14 07:38:01;;;;;;;2.05;1.73;;;23.80;77.70;;;;;;5036144;28;20034;-92
2020/12/14 07:40:30;;;;;;;3.53;2.40;;;23.90;78.00;;;;;;5020587;28;20094;-93
2020/12/14 07:42:56;;;;;;;2.05;1.85;;;23.90;77.10;;;;;;5019899;28;20018;-94
2020/12/14 07:45:24;;;;;;;2.85;2.05;;;23.90;77.90;;;;;;5019604;28;20096;-91
2020/12/14 07:48:32;;;;;;;3.03;1.80;;;23.90;77.00;;;;;;5020455;28;20017;-93
2020/12/14 07:51:06;;;;;;;2.80;1.90;;;23.90;77.10;;;;;;5039730;28;20040;-92
2020/12/14 07:53:33;;;;;;;2.38;1.80;;;23.90;77.50;;;;;;5020362;28;20026;-92
2020/12/14 07:56:05;;;;;;;4.32;2.05;;;23.90;77.50;;;;;;5018640;28;20118;-91
2020/12/14 07:58:43;;;;;;;2.70;2.00;;;23.90;77.70;;;;;;5037610;28;20060;-95
2020/12/14 08:01:17;;;;;;;4.38;1.85;;;23.80;77.10;;;;;;5019562;28;20022;-92
2020/12/14 08:03:45;;;;;;;2.38;1.88;;;23.80;77.60;;;;;;5018986;28;20021;-93
2020/12/14 08:06:21;;;;;;;2.13;1.92;;;23.80;77.90;;;;;;5020531;28;20014;-92
2020/12/14 08:08:49;;;;;;;2.78;1.88;;;23.80;78.30;;;;;;5019655;28;20042;-95
2020/12/14 08:11:20;;;;;;;3.00;2.10;;;23.70;78.20;;;;;;5021796;28;20016;-95
2020/12/14 08:13:51;;;;;;;1.83;1.65;;;23.70;78.80;;;;;;5037422;28;20049;-90
2020/12/14 08:16:22;;;;;;;2.22;1.85;;;23.60;78.90;;;;;;5021388;28;20053;-91
2020/12/14 08:18:49;;;;;;;2.92;1.90;;;23.60;79.10;;;;;;5019855;28;20060;-95
2020/12/14 08:21:27;;;;;;;2.67;2.03;;;23.60;79.60;;;;;;5018279;28;20026;-91
2020/12/14 08:23:54;;;;;;;2.10;1.88;;;23.50;80.00;;;;;;5019805;28;20030;-90
2020/12/14 08:26:39;;;;;;;4.97;2.17;;;23.50;80.20;;;;;;5022354;28;20016;-90
2020/12/14 08:29:06;;;;;;;4.43;2.17;;;23.50;80.70;;;;;;5017607;28;20052;-94
2020/12/14 08:31:32;;;;;;;4.53;1.88;;;23.50;80.70;;;;;;5020475;28;20014;-90
2020/12/14 08:33:59;;;;;;;3.20;1.98;;;23.50;80.30;;;;;;5006397;28;20030;-91
2020/12/14 08:36:26;;;;;;;3.13;2.10;;;23.50;81.70;;;;;;5021649;28;20033;-92
2020/12/14 08:38:52;;;;;;;3.00;1.58;;;23.40;80.80;;;;;;5038139;28;20056;-91
2020/12/14 08:41:22;;;;;;;3.17;1.90;;;23.40;81.20;;;;;;5040012;28;20045;-89
2020/12/14 08:43:53;;;;;;;3.45;1.98;;;23.40;81.30;;;;;;5023384;28;20044;-92
2020/12/14 08:46:27;;;;;;;2.38;2.03;;;23.40;81.30;;;;;;5023225;28;20053;-90
2020/12/14 08:48:57;;;;;;;3.88;1.95;;;23.30;81.10;;;;;;5023254;28;20040;-90
2020/12/14 08:51:32;;;;;;;2.95;1.90;;;23.30;81.20;;;;;;5023572;28;20018;-90
2020/12/14 08:54:18;;;;;;;2.78;1.60;;;23.30;80.50;;;;;;5022302;28;20018;-90
2020/12/14 08:56:45;;;;;;;2.25;1.58;;;23.30;80.60;;;;;;5039626;28;20017;-91
2020/12/14 08:59:18;;;;;;;2.60;1.88;;;23.30;80.30;;;;;;5022974;28;20068;-88
2020/12/14 09:01:55;;;;;;;2.58;2.00;;;23.30;80.10;;;;;;5022887;28;20026;-90
2020/12/14 09:04:35;;;;;;;9.50;2.05;;;23.30;80.60;;;;;;5021935;28;20094;-90
2020/12/14 09:07:02;;;;;;;3.05;2.00;;;23.30;80.60;;;;;;5022895;28;20010;-90
2020/12/14 09:09:35;;;;;;;4.55;2.20;;;23.30;80.70;;;;;;5022833;28;20097;-91
2020/12/14 09:12:08;;;;;;;3.60;2.05;;;23.20;81.30;;;;;;4990697;28;20038;-91
2020/12/14 09:14:35;;;;;;;3.15;1.95;;;23.20;81.10;;;;;;5022427;28;20018;-91
2020/12/14 09:17:05;;;;;;;3.42;2.40;;;23.20;80.70;;;;;;5022139;28;20025;-90
2020/12/14 09:19:35;;;;;;;3.45;2.35;;;23.20;80.50;;;;;;5022470;28;20102;-90
2020/12/14 09:22:02;;;;;;;4.20;2.17;;;23.20;81.00;;;;;;5021865;28;20030;-90
2020/12/14 09:24:35;;;;;;;2.85;2.00;;;23.20;80.90;;;;;;5021570;28;20068;-92
2020/12/14 09:27:07;;;;;;;3.83;2.00;;;23.20;81.30;;;;;;5038957;28;20022;-91
2020/12/14 09:29:35;;;;;;;3.90;2.00;;;23.20;80.70;;;;;;5038882;28;20010;-91
2020/12/14 09:32:03;;;;;;;3.97;2.00;;;23.30;80.10;;;;;;5021719;28;20049;-89
2020/12/14 09:34:31;;;;;;;4.40;2.03;;;23.20;80.30;;;;;;5022503;28;20037;-91
2020/12/14 09:37:01;;;;;;;3.20;2.00;;;23.20;80.20;;;;;;5006156;28;20022;-91
2020/12/14 09:39:29;;;;;;;4.38;2.30;;;23.30;80.20;;;;;;5020929;28;20033;-85
2020/12/14 09:41:57;;;;;;;3.47;2.00;;;23.30;80.20;;;;;;5034889;28;20330;-85
2020/12/14 09:44:25;;;;;;;1.90;1.70;;;23.30;80.20;;;;;;5035724;28;20081;-85
2020/12/14 09:46:51;;;;;;;3.03;1.90;;;23.40;79.80;;;;;;5035560;28;20089;-85
2020/12/14 09:49:18;;;;;;;3.53;2.00;;;23.30;79.60;;;;;;5035903;28;20025;-84
2020/12/14 09:51:45;;;;;;;2.85;2.20;;;23.30;79.60;;;;;;5034118;28;20018;-83
2020/12/14 09:54:12;;;;;;;5.15;1.95;;;23.30;79.10;;;;;;5034321;28;20360;-85
2020/12/14 09:56:41;;;;;;;3.42;1.65;;;23.30;79.10;;;;;;5033229;28;20049;-85
2020/12/14 09:59:07;;;;;;;1.98;1.58;;;23.30;79.00;;;;;;5031965;28;20076;-84
2020/12/14 10:01:35;;;;;;;3.88;1.88;;;23.30;78.10;;;;;;5034078;28;20089;-85
2020/12/14 10:04:02;;;;;;;2.38;1.60;;;23.30;78.10;;;;;;5033818;28;20018;-86
2020/12/14 10:06:29;;;;;;;2.63;1.75;;;23.30;77.60;;;;;;5035918;28;20021;-86
2020/12/14 10:08:56;;;;;;;2.75;2.08;;;23.30;77.60;;;;;;5031604;28;20017;-85
2020/12/14 10:11:25;;;;;;;3.40;1.80;;;23.30;77.30;;;;;;5012337;28;20100;-85
2020/12/14 10:13:51;;;;;;;2.53;1.60;;;23.30;77.30;;;;;;5010056;28;20298;-86
2020/12/14 10:16:18;;;;;;;2.40;1.70;;;23.30;77.20;;;;;;5015542;28;20344;-86
2020/12/14 10:18:46;;;;;;;2.30;1.80;;;23.40;77.40;;;;;;5033218;28;20045;-86
2020/12/14 10:21:13;;;;;;;4.53;1.83;;;23.30;77.20;;;;;;5029163;28;20099;-85
2020/12/14 10:23:40;;;;;;;5.03;1.60;;;23.30;77.80;;;;;;5029691;28;20026;-85
2020/12/14 10:26:08;;;;;;;2.15;1.77;;;23.30;77.30;;;;;;5032027;28;20278;-85
2020/12/14 10:28:36;;;;;;;2.80;1.80;;;23.30;77.40;;;;;;5015719;28;20029;-85
2020/12/14 10:31:05;;;;;;;5.22;1.88;;;23.30;77.40;;;;;;5015746;28;20044;-86
2020/12/14 10:33:37;;;;;;;5.60;2.00;;;23.40;77.70;;;;;;5017383;28;20026;-86
2020/12/14 10:36:18;;;;;;;7.15;1.90;;;23.30;77.60;;;;;;5017090;28;20026;-85
2020/12/14 10:38:46;;;;;;;2.67;1.90;;;23.30;77.20;;;;;;5020669;28;20044;-85
2020/12/14 10:41:17;;;;;;;5.93;1.80;;;23.30;77.60;;;;;;5038389;28;20036;-86
2020/12/14 10:43:43;;;;;;;14.38;2.50;;;23.20;78.30;;;;;;5021294;28;20029;-86
2020/12/14 10:46:10;;;;;;;13.48;2.80;;;23.20;78.00;;;;;;5038541;28;20037;-85
2020/12/14 10:48:40;;;;;;;15.32;2.38;;;23.10;78.10;;;;;;5021066;28;20114;-86
2020/12/14 10:51:06;;;;;;;12.40;3.88;;;23.10;78.30;;;;;;5037823;28;20014;-86
2020/12/14 10:53:33;;;;;;;8.68;2.53;;;23.10;77.90;;;;;;5037777;28;20033;-87
2020/12/14 10:56:02;;;;;;;13.90;2.50;;;23.10;77.10;;;;;;5020153;28;20026;-86
2020/12/14 10:58:28;;;;;;;6.28;2.10;;;23.10;76.90;;;;;;5005019;28;20044;-84
2020/12/14 11:00:55;;;;;;;10.05;2.03;;;23.20;76.70;;;;;;5038323;28;20030;-85
2020/12/14 11:03:23;;;;;;;4.28;2.00;;;23.20;77.40;;;;;;5019043;28;20060;-87
2020/12/14 11:05:54;;;;;;;3.75;2.30;;;23.20;77.20;;;;;;5032969;28;20088;-85
2020/12/14 11:08:21;;;;;;;5.72;2.67;;;23.30;77.00;;;;;;5001339;28;20026;-85
2020/12/14 11:10:49;;;;;;;7.72;3.70;;;23.30;77.60;;;;;;5020700;28;20038;-85
2020/12/14 11:13:16;;;;;;;10.60;5.00;;;23.40;77.50;;;;;;5038235;28;20090;-85
2020/12/14 11:15:42;;;;;;;8.48;5.05;;;23.50;77.80;;;;;;5020840;28;20021;-84
2020/12/14 11:18:09;;;;;;;9.13;4.50;;;23.50;77.50;;;;;;5038073;28;20022;-85
2020/12/14 11:20:36;;;;;;;7.22;3.00;;;23.60;77.20;;;;;;5038296;28;20022;-85
2020/12/14 11:23:02;;;;;;;12.25;2.75;;;23.60;76.30;;;;;;5038160;28;20010;-84
2020/12/14 11:25:29;;;;;;;12.95;3.00;;;23.60;76.70;;;;;;5021290;28;20077;-85
2020/12/14 11:27:56;;;;;;;5.03;2.45;;;23.70;76.90;;;;;;5038808;28;20017;-84
2020/12/14 11:30:22;;;;;;;4.97;3.10;;;23.70;76.40;;;;;;5024831;28;20034;-84
2020/12/14 11:32:49;;;;;;;10.27;4.40;;;23.70;76.40;;;;;;5041674;28;20209;-85
2020/12/14 11:35:15;;;;;;;9.52;3.97;;;23.80;76.90;;;;;;5024837;28;20059;-85
2020/12/14 11:37:42;;;;;;;8.57;2.63;;;23.80;77.20;;;;;;5040754;28;20049;-84
2020/12/14 11:40:09;;;;;;;6.72;2.00;;;23.80;75.70;;;;;;5040912;28;20022;-84
2020/12/14 11:42:36;;;;;;;6.65;1.85;;;23.90;75.10;;;;;;5037190;28;20077;-85
2020/12/14 11:45:07;;;;;;;11.40;1.85;;;23.90;74.30;;;;;;5031655;28;20022;-85
2020/12/14 11:47:34;;;;;;;9.88;1.92;;;24.00;74.20;;;;;;5186871;23;20030;-86
2020/12/14 11:50:06;;;;;;;4.40;1.67;;;24.10;73.90;;;;;;5061516;28;20040;-86
2020/12/14 11:52:33;;;;;;;4.15;1.63;;;24.10;73.70;;;;;;5044346;28;20025;-82
2020/12/14 11:55:14;;;;;;;5.32;1.73;;;24.20;73.70;;;;;;5061118;28;20014;-83
2020/12/14 11:57:41;;;;;;;5.00;1.90;;;24.20;73.90;;;;;;5060287;28;20066;-85
2020/12/14 12:00:17;;;;;;;7.85;1.90;;;24.20;73.00;;;;;;5060667;28;20077;-85
2020/12/14 12:02:45;;;;;;;5.47;2.00;;;24.30;72.90;;;;;;5043999;28;20021;-84
2020/12/14 12:05:11;;;;;;;7.82;2.15;;;24.30;72.80;;;;;;5027379;28;20029;-85
2020/12/14 12:07:38;;;;;;;7.97;1.88;;;24.40;72.70;;;;;;5060658;28;20031;-85
2020/12/14 12:10:05;;;;;;;4.97;1.88;;;24.40;72.70;;;;;;5043944;28;20016;-83
2020/12/14 12:12:31;;;;;;;14.13;2.40;;;24.50;73.10;;;;;;5060763;28;20064;-84
2020/12/14 12:14:58;;;;;;;5.15;2.10;;;24.50;73.60;;;;;;5043353;28;20077;-85
2020/12/14 12:17:24;;;;;;;6.28;2.45;;;24.60;73.50;;;;;;5060193;28;20021;-85
2020/12/14 12:19:51;;;;;;;8.25;2.60;;;24.60;73.20;;;;;;5060660;28;20009;-83
2020/12/14 12:22:19;;;;;;;13.38;2.78;;;24.60;73.40;;;;;;5060520;28;20029;-85
2020/12/14 12:24:46;;;;;;;9.73;2.75;;;24.70;74.20;;;;;;5060719;28;20006;-85
2020/12/14 12:27:13;;;;;;;13.43;3.10;;;24.70;74.40;;;;;;5059952;28;20025;-84
2020/12/14 12:29:40;;;;;;;8.85;3.17;;;24.80;74.00;;;;;;5059896;28;20009;-83
2020/12/14 12:32:06;;;;;;;12.30;2.67;;;24.90;74.20;;;;;;5060315;28;20080;-85
2020/12/14 12:34:35;;;;;;;9.65;2.70;;;25.00;74.10;;;;;;5043160;28;20016;-85
2020/12/14 12:37:05;;;;;;;12.50;3.60;;;25.10;74.40;;;;;;5041623;28;20042;-84
2020/12/14 12:39:32;;;;;;;9.23;3.10;;;25.20;74.00;;;;;;5038823;28;20029;-85
2020/12/14 12:41:59;;;;;;;12.48;3.17;;;25.30;74.40;;;;;;5056520;28;20056;-85
2020/12/14 12:44:28;;;;;;;9.15;2.70;;;25.30;74.20;;;;;;5056783;28;20017;-84
2020/12/14 12:46:54;;;;;;;8.23;2.85;;;25.30;74.20;;;;;;5040124;28;20049;-84
2020/12/14 12:49:21;;;;;;;11.93;2.80;;;25.40;74.60;;;;;;5038303;28;20025;-85
2020/12/14 12:51:58;;;;;;;12.90;2.50;;;25.40;74.70;;;;;;5037203;28;20038;-84
2020/12/14 12:54:24;;;;;;;7.32;3.47;;;25.50;74.30;;;;;;5057782;28;20042;-83
2020/12/14 12:56:53;;;;;;;14.07;7.20;;;25.60;74.00;;;;;;5055557;28;20021;-84
2020/12/14 12:59:30;;;;;;;57.58;29.13;;;25.60;74.60;;;;;;5056597;28;20087;-85
2020/12/14 13:01:58;;;;;;;8.60;4.13;;;25.70;74.10;;;;;;5055705;28;20048;-85
2020/12/14 13:04:28;;;;;;;10.20;3.75;;;25.70;74.30;;;;;;5048008;28;20017;-84
2020/12/14 13:06:55;;;;;;;1125.45;679.40;;;25.90;74.30;;;;;;5054243;28;20022;-83
2020/12/14 13:09:21;;;;;;;34.72;23.05;;;25.90;74.30;;;;;;5054809;28;20021;-84
2020/12/14 13:11:50;;;;;;;738.22;379.23;;;25.90;74.00;;;;;;5054357;28;20056;-85
2020/12/14 13:14:18;;;;;;;125.95;83.18;;;25.90;74.50;;;;;;5056446;28;20021;-85